Sikes, Louisiana
Current Conditions -  °F | °C
As of 4:55 PM on Thursday 23 Oct 2014 (Local Time) from KRSN Reporting Station
Clear Clear  
Wind Chill: 63°   Ceiling: Unl
Heat Index: 63°   Visibility: 10mi
Dew Point: 49°   Wind: 5mph
Humidity: 60%   Direction: 350°N
Pressure: 30.15"   Gusts: NA
Location:  32.08°N, 92.49°W
Report Text: KRSN 232155Z AUTO 35004KT 10SM CLR 17/10 A3015 RMK AO2 T01740096
Loading
Personal Weather Stations






























Interactive Weather Map
Tropical Storm Tracking
New forecast layout! Learn more

10-Day Weather Forecast

Advertisements
Track Severe Weather on mobile